sensor_id;sensor_type;location;lat;lon;timestamp;pressure;altitude;pressure_sealevel;temperature;humidity
63395;BME280;49531;-34.520;150.798;2024-03-02T00:01:45;100619.94;;;26.14;62.58
63395;BME280;49531;-34.520;150.798;2024-03-02T00:04:12;100604.78;;;26.03;62.75
63395;BME280;49531;-34.520;150.798;2024-03-02T00:06:39;100616.34;;;26.00;62.81
63395;BME280;49531;-34.520;150.798;2024-03-02T00:09:09;100621.94;;;26.08;62.72
63395;BME280;49531;-34.520;150.798;2024-03-02T00:11:38;100619.81;;;26.05;62.91
63395;BME280;49531;-34.520;150.798;2024-03-02T00:14:06;100617.88;;;26.06;62.60
63395;BME280;49531;-34.520;150.798;2024-03-02T00:16:34;100621.81;;;26.00;62.64
63395;BME280;49531;-34.520;150.798;2024-03-02T00:19:04;100625.78;;;25.94;62.54
63395;BME280;49531;-34.520;150.798;2024-03-02T00:21:32;100621.94;;;25.95;62.42
63395;BME280;49531;-34.520;150.798;2024-03-02T00:24:00;100634.50;;;25.96;62.64
63395;BME280;49531;-34.520;150.798;2024-03-02T00:26:29;100639.97;;;25.96;62.57
63395;BME280;49531;-34.520;150.798;2024-03-02T00:28:57;100638.34;;;25.95;62.77
63395;BME280;49531;-34.520;150.798;2024-03-02T00:31:24;100648.19;;;25.96;62.63
63395;BME280;49531;-34.520;150.798;2024-03-02T00:33:51;100636.53;;;26.04;62.45
63395;BME280;49531;-34.520;150.798;2024-03-02T00:36:26;100638.97;;;26.05;62.26
63395;BME280;49531;-34.520;150.798;2024-03-02T00:38:54;100640.78;;;25.96;62.54
63395;BME280;49531;-34.520;150.798;2024-03-02T00:41:22;100638.94;;;25.91;62.53
63395;BME280;49531;-34.520;150.798;2024-03-02T00:46:33;100642.06;;;25.85;62.67
63395;BME280;49531;-34.520;150.798;2024-03-02T00:51:39;100644.59;;;25.81;62.78
63395;BME280;49531;-34.520;150.798;2024-03-02T00:54:08;100646.28;;;25.77;62.91
63395;BME280;49531;-34.520;150.798;2024-03-02T00:56:36;100647.47;;;25.71;63.05
63395;BME280;49531;-34.520;150.798;2024-03-02T00:59:03;100642.13;;;25.61;63.27
63395;BME280;49531;-34.520;150.798;2024-03-02T01:01:30;100646.13;;;25.69;63.04
63395;BME280;49531;-34.520;150.798;2024-03-02T01:03:57;100647.53;;;25.66;63.24
63395;BME280;49531;-34.520;150.798;2024-03-02T01:06:25;100659.88;;;25.64;63.41
63395;BME280;49531;-34.520;150.798;2024-03-02T01:08:52;100651.38;;;25.65;62.92
63395;BME280;49531;-34.520;150.798;2024-03-02T01:11:19;100653.06;;;25.61;62.97
63395;BME280;49531;-34.520;150.798;2024-03-02T01:13:50;100659.97;;;25.58;63.23
63395;BME280;49531;-34.520;150.798;2024-03-02T01:16:18;100669.16;;;25.63;63.12
63395;BME280;49531;-34.520;150.798;2024-03-02T01:18:45;100655.97;;;25.70;63.08
63395;BME280;49531;-34.520;150.798;2024-03-02T01:21:12;100658.34;;;25.76;62.81
63395;BME280;49531;-34.520;150.798;2024-03-02T01:23:39;100658.13;;;25.73;62.86
63395;BME280;49531;-34.520;150.798;2024-03-02T01:26:06;100665.06;;;25.84;63.08
63395;BME280;49531;-34.520;150.798;2024-03-02T01:28:33;100658.56;;;25.80;63.11
63395;BME280;49531;-34.520;150.798;2024-03-02T01:31:01;100664.25;;;25.83;63.05
63395;BME280;49531;-34.520;150.798;2024-03-02T01:33:30;100665.06;;;25.84;62.96
63395;BME280;49531;-34.520;150.798;2024-03-02T01:35:57;100654.13;;;25.84;62.67
63395;BME280;49531;-34.520;150.798;2024-03-02T01:38:25;100664.41;;;25.92;62.83
63395;BME280;49531;-34.520;150.798;2024-03-02T01:40:52;100661.66;;;25.92;62.89
63395;BME280;49531;-34.520;150.798;2024-03-02T01:43:19;100669.78;;;25.97;62.88
63395;BME280;49531;-34.520;150.798;2024-03-02T01:45:46;100659.22;;;25.90;62.83
63395;BME280;49531;-34.520;150.798;2024-03-02T01:48:16;100668.06;;;26.01;62.71
63395;BME280;49531;-34.520;150.798;2024-03-02T01:50:43;100654.19;;;25.98;62.67
63395;BME280;49531;-34.520;150.798;2024-03-02T01:53:10;100658.53;;;25.99;63.00
63395;BME280;49531;-34.520;150.798;2024-03-02T01:55:37;100672.13;;;26.04;62.67
63395;BME280;49531;-34.520;150.798;2024-03-02T01:58:04;100672.41;;;26.02;62.91
63395;BME280;49531;-34.520;150.798;2024-03-02T02:00:32;100674.03;;;26.03;62.82
63395;BME280;49531;-34.520;150.798;2024-03-02T02:02:59;100658.63;;;25.94;62.75
63395;BME280;49531;-34.520;150.798;2024-03-02T02:05:26;100674.56;;;26.05;62.94
63395;BME280;49531;-34.520;150.798;2024-03-02T02:07:53;100672.63;;;26.06;62.74
63395;BME280;49531;-34.520;150.798;2024-03-02T02:10:20;100666.66;;;26.04;62.76
63395;BME280;49531;-34.520;150.798;2024-03-02T02:12:47;100645.66;;;25.99;62.69
63395;BME280;49531;-34.520;150.798;2024-03-02T02:15:30;100668.78;;;26.07;62.72
63395;BME280;49531;-34.520;150.798;2024-03-02T02:17:58;100664.94;;;26.08;62.94
63395;BME280;49531;-34.520;150.798;2024-03-02T02:20:26;100665.75;;;26.08;62.90
63395;BME280;49531;-34.520;150.798;2024-03-02T02:23:01;100659.47;;;26.08;62.64
63395;BME280;49531;-34.520;150.798;2024-03-02T02:25:29;100649.63;;;26.07;62.67
63395;BME280;49531;-34.520;150.798;2024-03-02T02:27:57;100642.81;;;26.04;62.75
63395;BME280;49531;-34.520;150.798;2024-03-02T02:30:29;100629.84;;;25.96;62.50
63395;BME280;49531;-34.520;150.798;2024-03-02T02:32:57;100633.41;;;26.10;62.62
63395;BME280;49531;-34.520;150.798;2024-03-02T02:35:24;100630.38;;;26.12;62.51
63395;BME280;49531;-34.520;150.798;2024-03-02T02:37:53;100618.63;;;26.11;62.62
63395;BME280;49531;-34.520;150.798;2024-03-02T02:40:21;100612.94;;;26.08;62.46
63395;BME280;49531;-34.520;150.798;2024-03-02T02:42:48;100626.63;;;26.08;62.53
63395;BME280;49531;-34.520;150.798;2024-03-02T02:45:16;100632.00;;;26.13;62.50
63395;BME280;49531;-34.520;150.798;2024-03-02T02:47:43;100622.16;;;26.12;62.73
63395;BME280;49531;-34.520;150.798;2024-03-02T02:50:12;100617.50;;;26.12;62.58
63395;BME280;49531;-34.520;150.798;2024-03-02T02:52:40;100641.84;;;26.14;62.42
63395;BME280;49531;-34.520;150.798;2024-03-02T02:55:09;100632.69;;;26.05;62.58
63395;BME280;49531;-34.520;150.798;2024-03-02T02:57:39;100622.75;;;26.09;62.62
63395;BME280;49531;-34.520;150.798;2024-03-02T03:00:11;100624.38;;;26.10;62.76
63395;BME280;49531;-34.520;150.798;2024-03-02T03:02:41;100626.22;;;26.14;62.40
63395;BME280;49531;-34.520;150.798;2024-03-02T03:05:10;100615.28;;;26.14;62.43
63395;BME280;49531;-34.520;150.798;2024-03-02T03:07:39;100622.69;;;26.14;62.58
63395;BME280;49531;-34.520;150.798;2024-03-02T03:10:08;100628.97;;;26.14;61.94
63395;BME280;49531;-34.520;150.798;2024-03-02T03:12:35;100630.84;;;26.00;62.29
63395;BME280;49531;-34.520;150.798;2024-03-02T03:15:03;100635.50;;;26.00;62.48
63395;BME280;49531;-34.520;150.798;2024-03-02T03:17:34;100636.66;;;25.99;62.19
63395;BME280;49531;-34.520;150.798;2024-03-02T03:20:03;100623.97;;;26.03;62.39
63395;BME280;49531;-34.520;150.798;2024-03-02T03:22:32;100628.25;;;26.09;62.36
63395;BME280;49531;-34.520;150.798;2024-03-02T03:24:59;100616.69;;;26.12;61.97
63395;BME280;49531;-34.520;150.798;2024-03-02T03:27:26;100614.25;;;26.10;62.08
63395;BME280;49531;-34.520;150.798;2024-03-02T03:29:53;100615.97;;;26.06;61.84
63395;BME280;49531;-34.520;150.798;2024-03-02T03:32:21;100613.44;;;26.10;62.23
63395;BME280;49531;-34.520;150.798;2024-03-02T03:34:48;100610.28;;;26.03;61.93
63395;BME280;49531;-34.520;150.798;2024-03-02T03:37:15;100620.53;;;26.11;62.29
63395;BME280;49531;-34.520;150.798;2024-03-02T03:39:43;100618.31;;;26.13;62.18
63395;BME280;49531;-34.520;150.798;2024-03-02T03:42:10;100581.28;;;26.02;62.07
63395;BME280;49531;-34.520;150.798;2024-03-02T03:44:37;100585.03;;;26.06;62.15
63395;BME280;49531;-34.520;150.798;2024-03-02T03:47:05;100600.47;;;26.15;61.01
63395;BME280;49531;-34.520;150.798;2024-03-02T03:49:32;100593.47;;;26.09;61.11
63395;BME280;49531;-34.520;150.798;2024-03-02T03:52:00;100586.06;;;25.96;61.45
63395;BME280;49531;-34.520;150.798;2024-03-02T03:54:27;100590.72;;;25.96;61.93
63395;BME280;49531;-34.520;150.798;2024-03-02T03:56:54;100577.13;;;25.90;62.00
63395;BME280;49531;-34.520;150.798;2024-03-02T03:59:22;100583.84;;;25.98;61.87
63395;BME280;49531;-34.520;150.798;2024-03-02T04:01:50;100550.25;;;25.92;61.93
63395;BME280;49531;-34.520;150.798;2024-03-02T04:04:17;100567.59;;;26.02;61.90
63395;BME280;49531;-34.520;150.798;2024-03-02T04:06:44;100552.63;;;25.99;62.15
63395;BME280;49531;-34.520;150.798;2024-03-02T04:09:11;100569.72;;;26.05;61.70
63395;BME280;49531;-34.520;150.798;2024-03-02T04:11:38;100565.78;;;26.11;61.81
63395;BME280;49531;-34.520;150.798;2024-03-02T04:14:06;100543.25;;;26.00;61.47
63395;BME280;49531;-34.520;150.798;2024-03-02T04:16:33;100561.03;;;26.16;61.35
63395;BME280;49531;-34.520;150.798;2024-03-02T04:19:00;100538.94;;;26.13;61.51
63395;BME280;49531;-34.520;150.798;2024-03-02T04:21:27;100550.47;;;26.10;61.33
63395;BME280;49531;-34.520;150.798;2024-03-02T04:23:54;100535.03;;;26.00;61.00
63395;BME280;49531;-34.520;150.798;2024-03-02T04:26:25;100567.75;;;26.24;60.95
63395;BME280;49531;-34.520;150.798;2024-03-02T04:28:53;100559.09;;;26.17;61.09
63395;BME280;49531;-34.520;150.798;2024-03-02T04:31:21;100559.31;;;26.20;60.97
63395;BME280;49531;-34.520;150.798;2024-03-02T04:33:48;100546.66;;;26.24;61.01
63395;BME280;49531;-34.520;150.798;2024-03-02T04:36:15;100546.34;;;26.26;60.88
63395;BME280;49531;-34.520;150.798;2024-03-02T04:38:42;100541.56;;;26.18;61.28
63395;BME280;49531;-34.520;150.798;2024-03-02T04:41:09;100553.03;;;26.20;61.27
63395;BME280;49531;-34.520;150.798;2024-03-02T04:43:36;100539.63;;;26.18;61.05
63395;BME280;49531;-34.520;150.798;2024-03-02T04:46:04;100550.91;;;26.17;61.18
63395;BME280;49531;-34.520;150.798;2024-03-02T04:48:33;100545.72;;;26.15;61.02
63395;BME280;49531;-34.520;150.798;2024-03-02T04:51:00;100538.63;;;26.14;61.15
63395;BME280;49531;-34.520;150.798;2024-03-02T04:53:27;100560.03;;;26.26;59.95
63395;BME280;49531;-34.520;150.798;2024-03-02T04:55:55;100566.00;;;26.14;60.00
63395;BME280;49531;-34.520;150.798;2024-03-02T04:58:25;100559.88;;;26.04;60.11
63395;BME280;49531;-34.520;150.798;2024-03-02T05:00:52;100568.22;;;25.99;59.75
63395;BME280;49531;-34.520;150.798;2024-03-02T05:03:19;100569.13;;;25.94;60.13
63395;BME280;49531;-34.520;150.798;2024-03-02T05:05:46;100570.03;;;25.89;60.47
63395;BME280;49531;-34.520;150.798;2024-03-02T05:08:14;100571.84;;;25.94;60.65
63395;BME280;49531;-34.520;150.798;2024-03-02T05:10:43;100584.31;;;26.00;60.65
63395;BME280;49531;-34.520;150.798;2024-03-02T05:13:10;100578.97;;;25.95;60.80
63395;BME280;49531;-34.520;150.798;2024-03-02T05:15:37;100587.88;;;26.01;60.91
63395;BME280;49531;-34.520;150.798;2024-03-02T05:18:04;100579.97;;;25.99;60.96
63395;BME280;49531;-34.520;150.798;2024-03-02T05:20:31;100583.03;;;25.98;60.93
63395;BME280;49531;-34.520;150.798;2024-03-02T05:22:59;100586.88;;;25.97;60.88
63395;BME280;49531;-34.520;150.798;2024-03-02T05:25:26;100586.56;;;25.98;60.92
63395;BME280;49531;-34.520;150.798;2024-03-02T05:27:53;100596.41;;;25.99;60.72
63395;BME280;49531;-34.520;150.798;2024-03-02T05:30:20;100602.88;;;26.03;60.78
63395;BME280;49531;-34.520;150.798;2024-03-02T05:32:47;100601.88;;;25.99;60.59
63395;BME280;49531;-34.520;150.798;2024-03-02T05:35:15;100598.31;;;25.99;60.81
63395;BME280;49531;-34.520;150.798;2024-03-02T05:37:42;100614.13;;;26.02;60.53
63395;BME280;49531;-34.520;150.798;2024-03-02T05:40:09;100619.72;;;25.97;60.61
63395;BME280;49531;-34.520;150.798;2024-03-02T05:42:37;100622.97;;;25.99;60.55
63395;BME280;49531;-34.520;150.798;2024-03-02T05:45:05;100611.19;;;25.98;59.79
63395;BME280;49531;-34.520;150.798;2024-03-02T05:47:32;100623.16;;;26.02;59.55
63395;BME280;49531;-34.520;150.798;2024-03-02T05:49:59;100619.72;;;25.97;59.57
63395;BME280;49531;-34.520;150.798;2024-03-02T05:52:26;100638.75;;;26.02;59.44
63395;BME280;49531;-34.520;150.798;2024-03-02T05:54:54;100630.44;;;25.93;59.07
63395;BME280;49531;-34.520;150.798;2024-03-02T05:57:21;100648.06;;;26.01;59.59
63395;BME280;49531;-34.520;150.798;2024-03-02T06:00:07;100657.41;;;26.00;59.50
63395;BME280;49531;-34.520;150.798;2024-03-02T06:02:34;100655.00;;;25.98;59.19
63395;BME280;49531;-34.520;150.798;2024-03-02T06:05:04;100650.41;;;25.94;59.11
63395;BME280;49531;-34.520;150.798;2024-03-02T06:07:31;100658.84;;;25.97;58.90
63395;BME280;49531;-34.520;150.798;2024-03-02T06:09:58;100658.03;;;25.97;58.92
63395;BME280;49531;-34.520;150.798;2024-03-02T06:12:25;100673.94;;;25.95;59.12
63395;BME280;49531;-34.520;150.798;2024-03-02T06:14:52;100679.41;;;25.95;58.86
63395;BME280;49531;-34.520;150.798;2024-03-02T06:17:20;100669.06;;;25.91;58.75
63395;BME280;49531;-34.520;150.798;2024-03-02T06:19:47;100670.47;;;25.89;58.62
63395;BME280;49531;-34.520;150.798;2024-03-02T06:22:14;100673.19;;;25.89;58.76
63395;BME280;49531;-34.520;150.798;2024-03-02T06:24:41;100678.06;;;25.92;58.56
63395;BME280;49531;-34.520;150.798;2024-03-02T06:27:08;100680.59;;;25.88;58.52
63395;BME280;49531;-34.520;150.798;2024-03-02T06:29:35;100681.09;;;25.90;58.82
63395;BME280;49531;-34.520;150.798;2024-03-02T06:32:02;100669.94;;;25.87;58.64
63395;BME280;49531;-34.520;150.798;2024-03-02T06:34:30;100676.44;;;25.91;58.44
63395;BME280;49531;-34.520;150.798;2024-03-02T06:36:57;100682.88;;;25.81;58.71
63395;BME280;49531;-34.520;150.798;2024-03-02T06:39:24;100700.94;;;25.82;58.63
63395;BME280;49531;-34.520;150.798;2024-03-02T06:41:52;100691.63;;;25.83;58.41
63395;BME280;49531;-34.520;150.798;2024-03-02T06:44:19;100691.63;;;25.83;58.48
63395;BME280;49531;-34.520;150.798;2024-03-02T06:46:47;100683.09;;;25.85;58.72
63395;BME280;49531;-34.520;150.798;2024-03-02T06:49:17;100679.63;;;25.79;58.63
63395;BME280;49531;-34.520;150.798;2024-03-02T06:51:45;100695.91;;;25.89;58.52
63395;BME280;49531;-34.520;150.798;2024-03-02T06:54:12;100701.09;;;25.91;58.70
63395;BME280;49531;-34.520;150.798;2024-03-02T06:56:39;100706.84;;;25.89;58.92
63395;BME280;49531;-34.520;150.798;2024-03-02T06:59:06;100703.88;;;25.86;58.70
63395;BME280;49531;-34.520;150.798;2024-03-02T07:01:33;100699.53;;;25.85;58.29
63395;BME280;49531;-34.520;150.798;2024-03-02T07:04:00;100694.06;;;25.85;58.76
63395;BME280;49531;-34.520;150.798;2024-03-02T07:06:28;100683.09;;;25.85;58.40
63395;BME280;49531;-34.520;150.798;2024-03-02T07:08:55;100701.66;;;25.88;58.63
63395;BME280;49531;-34.520;150.798;2024-03-02T07:11:22;100700.94;;;25.82;58.42
63395;BME280;49531;-34.520;150.798;2024-03-02T07:13:49;100696.19;;;25.88;58.71
63395;BME280;49531;-34.520;150.798;2024-03-02T07:16:16;100693.25;;;25.84;58.50
63395;BME280;49531;-34.520;150.798;2024-03-02T07:18:59;100708.25;;;25.87;58.35
63395;BME280;49531;-34.520;150.798;2024-03-02T07:21:28;100717.56;;;25.86;58.46
63395;BME280;49531;-34.520;150.798;2024-03-02T07:23:55;100705.59;;;25.82;58.30
63395;BME280;49531;-34.520;150.798;2024-03-02T07:26:22;100705.59;;;25.82;57.27
63395;BME280;49531;-34.520;150.798;2024-03-02T07:28:49;100710.63;;;25.75;56.31
63395;BME280;49531;-34.520;150.798;2024-03-02T07:31:17;100709.41;;;25.62;57.33
63395;BME280;49531;-34.520;150.798;2024-03-02T07:33:45;100700.19;;;25.58;57.72
63395;BME280;49531;-34.520;150.798;2024-03-02T07:36:15;100697.72;;;25.56;57.77
63395;BME280;49531;-34.520;150.798;2024-03-02T07:38:43;100696.63;;;25.57;57.65
63395;BME280;49531;-34.520;150.798;2024-03-02T07:41:10;100703.41;;;25.60;58.05
63395;BME280;49531;-34.520;150.798;2024-03-02T07:43:38;100706.41;;;25.64;58.13
63395;BME280;49531;-34.520;150.798;2024-03-02T07:46:05;100692.41;;;25.65;57.78
63395;BME280;49531;-34.520;150.798;2024-03-02T07:48:33;100668.53;;;25.52;57.88
63395;BME280;49531;-34.520;150.798;2024-03-02T07:51:00;100701.66;;;25.69;57.88
63395;BME280;49531;-34.520;150.798;2024-03-02T07:53:28;100705.81;;;25.67;57.88
63395;BME280;49531;-34.520;150.798;2024-03-02T07:55:56;100712.69;;;25.64;57.76
63395;BME280;49531;-34.520;150.798;2024-03-02T07:58:29;100719.22;;;25.63;57.68
63395;BME280;49531;-34.520;150.798;2024-03-02T08:00:57;100721.16;;;25.63;57.84
63395;BME280;49531;-34.520;150.798;2024-03-02T08:03:24;100717.34;;;25.64;57.94
63395;BME280;49531;-34.520;150.798;2024-03-02T08:05:51;100729.63;;;25.66;57.80
63395;BME280;49531;-34.520;150.798;2024-03-02T08:08:19;100722.50;;;25.65;57.71
63395;BME280;49531;-34.520;150.798;2024-03-02T08:10:46;100728.28;;;25.64;57.72
63395;BME280;49531;-34.520;150.798;2024-03-02T08:13:13;100736.22;;;25.60;58.10
63395;BME280;49531;-34.520;150.798;2024-03-02T08:15:40;100734.00;;;25.62;57.75
63395;BME280;49531;-34.520;150.798;2024-03-02T08:18:07;100726.91;;;25.61;56.80
63395;BME280;49531;-34.520;150.798;2024-03-02T08:20:34;100724.16;;;25.42;57.31
63395;BME280;49531;-34.520;150.798;2024-03-02T08:23:02;100750.88;;;25.50;57.02
63395;BME280;49531;-34.520;150.798;2024-03-02T08:25:29;100755.25;;;25.51;57.39
63395;BME280;49531;-34.520;150.798;2024-03-02T08:27:57;100759.84;;;25.56;57.51
63395;BME280;49531;-34.520;150.798;2024-03-02T08:30:24;100761.22;;;25.53;57.48
63395;BME280;49531;-34.520;150.798;2024-03-02T08:32:51;100750.06;;;25.50;57.68
63395;BME280;49531;-34.520;150.798;2024-03-02T08:35:18;100760.19;;;25.49;57.63
63395;BME280;49531;-34.520;150.798;2024-03-02T08:37:46;100763.16;;;25.53;57.67
63395;BME280;49531;-34.520;150.798;2024-03-02T08:40:13;100770.25;;;25.54;57.67
63395;BME280;49531;-34.520;150.798;2024-03-02T08:42:41;100777.34;;;25.55;57.40
63395;BME280;49531;-34.520;150.798;2024-03-02T08:45:08;100769.50;;;25.48;57.58
63395;BME280;49531;-34.520;150.798;2024-03-02T08:47:36;100772.47;;;25.52;57.58
63395;BME280;49531;-34.520;150.798;2024-03-02T08:50:03;100783.94;;;25.54;57.43
63395;BME280;49531;-34.520;150.798;2024-03-02T08:52:31;100789.09;;;25.55;57.75
63395;BME280;49531;-34.520;150.798;2024-03-02T08:54:58;100783.69;;;25.50;57.54
63395;BME280;49531;-34.520;150.798;2024-03-02T08:57:25;100784.81;;;25.49;57.44
63395;BME280;49531;-34.520;150.798;2024-03-02T08:59:52;100786.44;;;25.50;57.87
63395;BME280;49531;-34.520;150.798;2024-03-02T09:02:20;100785.03;;;25.53;57.62
63395;BME280;49531;-34.520;150.798;2024-03-02T09:04:47;100790.50;;;25.53;58.15
63395;BME280;49531;-34.520;150.798;2024-03-02T09:07:14;100793.31;;;25.48;57.59
63395;BME280;49531;-34.520;150.798;2024-03-02T09:09:41;100785.44;;;25.41;57.97
63395;BME280;49531;-34.520;150.798;2024-03-02T09:12:08;100804.19;;;25.53;57.92
63395;BME280;49531;-34.520;150.798;2024-03-02T09:14:37;100815.94;;;25.53;57.70
63395;BME280;49531;-34.520;150.798;2024-03-02T09:17:05;100815.19;;;25.48;57.40
63395;BME280;49531;-34.520;150.798;2024-03-02T09:19:32;100824.44;;;25.52;58.02
63395;BME280;49531;-34.520;150.798;2024-03-02T09:21:59;100819.00;;;25.47;58.01
63395;BME280;49531;-34.520;150.798;2024-03-02T09:24:29;100828.75;;;25.58;57.94
63395;BME280;49531;-34.520;150.798;2024-03-02T09:26:56;100825.19;;;25.57;57.85
63395;BME280;49531;-34.520;150.798;2024-03-02T09:29:25;100835.78;;;25.64;57.87
63395;BME280;49531;-34.520;150.798;2024-03-02T09:31:53;100845.56;;;25.70;57.82
63395;BME280;49531;-34.520;150.798;2024-03-02T09:34:21;100839.03;;;25.66;57.80
63395;BME280;49531;-34.520;150.798;2024-03-02T09:36:51;100848.59;;;25.69;58.00
63395;BME280;49531;-34.520;150.798;2024-03-02T09:39:19;100854.53;;;25.76;57.76
63395;BME280;49531;-34.520;150.798;2024-03-02T09:41:48;100861.09;;;25.75;57.98
63395;BME280;49531;-34.520;150.798;2024-03-02T09:44:16;100856.16;;;25.77;58.06
63395;BME280;49531;-34.520;150.798;2024-03-02T09:46:49;100865.19;;;25.77;57.81
63395;BME280;49531;-34.520;150.798;2024-03-02T09:49:18;100861.34;;;25.78;57.92
63395;BME280;49531;-34.520;150.798;2024-03-02T09:51:49;100868.72;;;25.78;57.99
63395;BME280;49531;-34.520;150.798;2024-03-02T09:54:17;100865.69;;;25.79;58.03
63395;BME280;49531;-34.520;150.798;2024-03-02T09:56:45;100864.59;;;25.80;57.63
63395;BME280;49531;-34.520;150.798;2024-03-02T09:59:12;100861.34;;;25.78;57.89
63395;BME280;49531;-34.520;150.798;2024-03-02T10:02:12;100873.63;;;25.81;58.06
63395;BME280;49531;-34.520;150.798;2024-03-02T10:04:40;100872.81;;;25.80;57.80
63395;BME280;49531;-34.520;150.798;2024-03-02T10:07:14;100869.25;;;25.80;57.84
63395;BME280;49531;-34.520;150.798;2024-03-02T10:09:43;100875.53;;;25.80;58.12
63395;BME280;49531;-34.520;150.798;2024-03-02T10:12:13;100876.06;;;25.82;57.55
63395;BME280;49531;-34.520;150.798;2024-03-02T10:14:42;100874.44;;;25.81;57.88
63395;BME280;49531;-34.520;150.798;2024-03-02T10:17:12;100879.91;;;25.81;57.91
63395;BME280;49531;-34.520;150.798;2024-03-02T10:19:43;100886.78;;;25.79;58.03
63395;BME280;49531;-34.520;150.798;2024-03-02T10:22:10;100886.50;;;25.80;57.95
63395;BME280;49531;-34.520;150.798;2024-03-02T10:24:45;100881.00;;;25.80;57.92
63395;BME280;49531;-34.520;150.798;2024-03-02T10:27:17;100884.56;;;25.81;58.22
63395;BME280;49531;-34.520;150.798;2024-03-02T10:29:48;100890.56;;;25.83;58.01
63395;BME280;49531;-34.520;150.798;2024-03-02T10:32:16;100895.22;;;25.82;57.87
63395;BME280;49531;-34.520;150.798;2024-03-02T10:34:47;100888.66;;;25.83;58.00
63395;BME280;49531;-34.520;150.798;2024-03-02T10:37:16;100887.81;;;25.83;57.76
63395;BME280;49531;-34.520;150.798;2024-03-02T10:39:46;100897.38;;;25.85;57.90
63395;BME280;49531;-34.520;150.798;2024-03-02T10:42:15;100894.19;;;25.78;57.76
63395;BME280;49531;-34.520;150.798;2024-03-02T10:44:43;100893.06;;;25.79;57.89
63395;BME280;49531;-34.520;150.798;2024-03-02T10:47:13;100884.56;;;25.81;57.83
63395;BME280;49531;-34.520;150.798;2024-03-02T10:49:42;100879.63;;;25.83;57.73
63395;BME280;49531;-34.520;150.798;2024-03-02T10:52:10;100875.53;;;25.80;57.82
63395;BME280;49531;-34.520;150.798;2024-03-02T10:54:38;100883.16;;;25.83;57.72
63395;BME280;49531;-34.520;150.798;2024-03-02T10:57:07;100884.34;;;25.77;57.66
63395;BME280;49531;-34.520;150.798;2024-03-02T10:59:37;100880.50;;;25.78;57.92
63395;BME280;49531;-34.520;150.798;2024-03-02T11:02:12;100882.94;;;25.80;57.87
63395;BME280;49531;-34.520;150.798;2024-03-02T11:04:41;100880.78;;;25.77;57.92
63395;BME280;49531;-34.520;150.798;2024-03-02T11:07:10;100891.66;;;25.82;57.53
63395;BME280;49531;-34.520;150.798;2024-03-02T11:09:41;100882.66;;;25.81;57.55
63395;BME280;49531;-34.520;150.798;2024-03-02T11:12:31;100900.47;;;25.79;57.97
63395;BME280;49531;-34.520;150.798;2024-03-02T11:15:08;100894.19;;;25.78;57.63
63395;BME280;49531;-34.520;150.798;2024-03-02T11:17:38;100879.72;;;25.73;57.89
63395;BME280;49531;-34.520;150.798;2024-03-02T11:20:08;100896.91;;;25.78;57.54
63395;BME280;49531;-34.520;150.798;2024-03-02T11:22:37;100896.91;;;25.78;57.69
63395;BME280;49531;-34.520;150.798;2024-03-02T11:25:06;100887.13;;;25.72;57.96
63395;BME280;49531;-34.520;150.798;2024-03-02T11:33:06;100886.31;;;25.72;57.91
63395;BME280;49531;-34.520;150.798;2024-03-02T11:35:44;100876.81;;;25.64;57.74
63395;BME280;49531;-34.520;150.798;2024-03-02T11:38:15;100870.25;;;25.65;57.84
63395;BME280;49531;-34.520;150.798;2024-03-02T11:40:42;100887.94;;;25.73;57.78
63395;BME280;49531;-34.520;150.798;2024-03-02T11:43:11;100884.69;;;25.71;57.59
63395;BME280;49531;-34.520;150.798;2024-03-02T11:45:38;100889.00;;;25.77;57.42
63395;BME280;49531;-34.520;150.798;2024-03-02T11:48:14;100884.63;;;25.76;57.72
63395;BME280;49531;-34.520;150.798;2024-03-02T11:50:42;100881.06;;;25.75;57.38
63395;BME280;49531;-34.520;150.798;2024-03-02T11:53:14;100878.88;;;25.77;57.32
63395;BME280;49531;-34.520;150.798;2024-03-02T11:55:42;100871.53;;;25.73;57.50
63395;BME280;49531;-34.520;150.798;2024-03-02T11:58:14;100866.88;;;25.73;57.29
63395;BME280;49531;-34.520;150.798;2024-03-02T12:00:56;100860.59;;;25.73;57.53
63395;BME280;49531;-34.520;150.798;2024-03-02T12:03:25;100846.97;;;25.68;57.31
63395;BME280;49531;-34.520;150.798;2024-03-02T12:05:54;100856.28;;;25.67;57.52
63395;BME280;49531;-34.520;150.798;2024-03-02T12:08:22;100851.38;;;25.64;57.71
63395;BME280;49531;-34.520;150.798;2024-03-02T12:11:00;100858.19;;;25.66;57.71
63395;BME280;49531;-34.520;150.798;2024-03-02T12:13:27;100829.91;;;25.52;57.52
63395;BME280;49531;-34.520;150.798;2024-03-02T12:15:55;100865.00;;;25.69;57.25
63395;BME280;49531;-34.520;150.798;2024-03-02T12:18:23;100866.63;;;25.70;57.45
63395;BME280;49531;-34.520;150.798;2024-03-02T12:20:50;100862.56;;;25.67;57.62
63395;BME280;49531;-34.520;150.798;2024-03-02T12:23:20;100853.81;;;25.65;57.58
63395;BME280;49531;-34.520;150.798;2024-03-02T12:25:47;100853.25;;;25.68;57.39
63395;BME280;49531;-34.520;150.798;2024-03-02T12:28:15;100851.63;;;25.67;57.44
63395;BME280;49531;-34.520;150.798;2024-03-02T12:30:43;100849.97;;;25.66;57.59
63395;BME280;49531;-34.520;150.798;2024-03-02T12:33:12;100846.72;;;25.64;57.31
63395;BME280;49531;-34.520;150.798;2024-03-02T12:35:41;100838.78;;;25.63;57.55
63395;BME280;49531;-34.520;150.798;2024-03-02T12:38:10;100847.00;;;25.63;57.40